sensor_id;sensor_type;location;lat;lon;timestamp;P1;durP1;ratioP1;P2;durP2;ratioP2
18206;SDS011;9229;52.354;20.886;2023-06-04T00:03:22;10.05;;;5.47;;
18206;SDS011;9229;52.354;20.886;2023-06-04T00:08:24;8.82;;;5.30;;
18206;SDS011;9229;52.354;20.886;2023-06-04T00:13:28;19.42;;;5.57;;
18206;SDS011;9229;52.354;20.886;2023-06-04T00:18:29;11.30;;;5.07;;
18206;SDS011;9229;52.354;20.886;2023-06-04T00:23:31;14.30;;;4.68;;
18206;SDS011;9229;52.354;20.886;2023-06-04T00:28:35;8.40;;;4.70;;
18206;SDS011;9229;52.354;20.886;2023-06-04T00:33:37;17.85;;;5.53;;
18206;SDS011;9229;52.354;20.886;2023-06-04T00:38:39;5.45;;;4.40;;
18206;SDS011;9229;52.354;20.886;2023-06-04T00:43:42;6.00;;;4.30;;
18206;SDS011;9229;52.354;20.886;2023-06-04T00:48:45;6.07;;;5.07;;
18206;SDS011;9229;52.354;20.886;2023-06-04T00:53:48;8.43;;;5.00;;
18206;SDS011;9229;52.354;20.886;2023-06-04T00:58:51;4.75;;;4.30;;
18206;SDS011;9229;52.354;20.886;2023-06-04T01:03:54;6.32;;;4.47;;
18206;SDS011;9229;52.354;20.886;2023-06-04T01:08:57;5.80;;;4.82;;
18206;SDS011;9229;52.354;20.886;2023-06-04T01:14:01;8.43;;;5.47;;
18206;SDS011;9229;52.354;20.886;2023-06-04T01:19:04;6.72;;;4.78;;
18206;SDS011;9229;52.354;20.886;2023-06-04T01:24:21;5.70;;;5.18;;
18206;SDS011;9229;52.354;20.886;2023-06-04T01:29:28;5.03;;;4.55;;
18206;SDS011;9229;52.354;20.886;2023-06-04T01:34:30;5.88;;;5.00;;
18206;SDS011;9229;52.354;20.886;2023-06-04T01:39:32;8.65;;;5.60;;
18206;SDS011;9229;52.354;20.886;2023-06-04T01:44:36;9.55;;;5.50;;
18206;SDS011;9229;52.354;20.886;2023-06-04T01:49:39;9.38;;;4.78;;
18206;SDS011;9229;52.354;20.886;2023-06-04T01:54:41;7.10;;;5.13;;
18206;SDS011;9229;52.354;20.886;2023-06-04T01:59:44;5.60;;;4.45;;
18206;SDS011;9229;52.354;20.886;2023-06-04T02:04:46;6.30;;;4.88;;
18206;SDS011;9229;52.354;20.886;2023-06-04T02:09:51;5.97;;;4.95;;
18206;SDS011;9229;52.354;20.886;2023-06-04T02:14:55;6.30;;;5.03;;
18206;SDS011;9229;52.354;20.886;2023-06-04T02:19:57;6.18;;;5.32;;
18206;SDS011;9229;52.354;20.886;2023-06-04T02:25:00;9.65;;;5.15;;
18206;SDS011;9229;52.354;20.886;2023-06-04T02:30:04;5.32;;;4.75;;
18206;SDS011;9229;52.354;20.886;2023-06-04T02:35:07;8.43;;;5.93;;
18206;SDS011;9229;52.354;20.886;2023-06-04T02:40:12;5.68;;;5.13;;
18206;SDS011;9229;52.354;20.886;2023-06-04T02:45:15;6.25;;;5.60;;
18206;SDS011;9229;52.354;20.886;2023-06-04T02:50:17;7.20;;;4.97;;
18206;SDS011;9229;52.354;20.886;2023-06-04T02:55:20;6.32;;;5.38;;
18206;SDS011;9229;52.354;20.886;2023-06-04T03:00:25;7.43;;;5.32;;
18206;SDS011;9229;52.354;20.886;2023-06-04T03:05:27;6.57;;;4.85;;
18206;SDS011;9229;52.354;20.886;2023-06-04T03:10:31;9.13;;;5.47;;
18206;SDS011;9229;52.354;20.886;2023-06-04T03:15:34;9.70;;;6.13;;
18206;SDS011;9229;52.354;20.886;2023-06-04T03:20:39;8.40;;;5.00;;
18206;SDS011;9229;52.354;20.886;2023-06-04T03:25:41;5.53;;;4.88;;
18206;SDS011;9229;52.354;20.886;2023-06-04T03:30:44;8.50;;;5.07;;
18206;SDS011;9229;52.354;20.886;2023-06-04T03:35:46;7.25;;;5.68;;
18206;SDS011;9229;52.354;20.886;2023-06-04T03:40:49;5.68;;;4.90;;
18206;SDS011;9229;52.354;20.886;2023-06-04T03:45:54;8.88;;;5.45;;
18206;SDS011;9229;52.354;20.886;2023-06-04T03:50:56;6.93;;;5.32;;
18206;SDS011;9229;52.354;20.886;2023-06-04T03:55:59;5.97;;;4.60;;
18206;SDS011;9229;52.354;20.886;2023-06-04T04:01:04;9.30;;;5.47;;
18206;SDS011;9229;52.354;20.886;2023-06-04T04:06:07;6.65;;;4.75;;
18206;SDS011;9229;52.354;20.886;2023-06-04T04:11:12;8.00;;;4.97;;
18206;SDS011;9229;52.354;20.886;2023-06-04T04:16:17;10.85;;;4.50;;
18206;SDS011;9229;52.354;20.886;2023-06-04T04:21:19;7.43;;;5.47;;
18206;SDS011;9229;52.354;20.886;2023-06-04T04:26:24;8.00;;;5.35;;
18206;SDS011;9229;52.354;20.886;2023-06-04T04:31:30;8.02;;;5.03;;
18206;SDS011;9229;52.354;20.886;2023-06-04T04:36:33;6.03;;;5.38;;
18206;SDS011;9229;52.354;20.886;2023-06-04T04:41:36;8.88;;;5.63;;
18206;SDS011;9229;52.354;20.886;2023-06-04T04:46:41;17.70;;;6.35;;
18206;SDS011;9229;52.354;20.886;2023-06-04T04:51:43;5.60;;;5.10;;
18206;SDS011;9229;52.354;20.886;2023-06-04T04:56:45;7.18;;;4.68;;
18206;SDS011;9229;52.354;20.886;2023-06-04T05:01:49;6.57;;;5.25;;
18206;SDS011;9229;52.354;20.886;2023-06-04T05:06:51;13.70;;;5.53;;
18206;SDS011;9229;52.354;20.886;2023-06-04T05:11:54;6.85;;;5.22;;
18206;SDS011;9229;52.354;20.886;2023-06-04T05:16:58;10.07;;;4.95;;
18206;SDS011;9229;52.354;20.886;2023-06-04T05:22:00;5.95;;;4.53;;
18206;SDS011;9229;52.354;20.886;2023-06-04T05:27:03;10.80;;;4.30;;
18206;SDS011;9229;52.354;20.886;2023-06-04T05:32:07;5.68;;;4.35;;
18206;SDS011;9229;52.354;20.886;2023-06-04T05:37:09;4.38;;;4.03;;
18206;SDS011;9229;52.354;20.886;2023-06-04T05:42:12;4.32;;;3.92;;
18206;SDS011;9229;52.354;20.886;2023-06-04T05:47:17;3.67;;;3.38;;
18206;SDS011;9229;52.354;20.886;2023-06-04T05:52:20;13.27;;;3.40;;
18206;SDS011;9229;52.354;20.886;2023-06-04T05:57:23;4.00;;;2.00;;
18206;SDS011;9229;52.354;20.886;2023-06-04T06:02:28;5.20;;;2.60;;
18206;SDS011;9229;52.354;20.886;2023-06-04T06:07:32;5.25;;;2.13;;
18206;SDS011;9229;52.354;20.886;2023-06-04T06:12:35;2.97;;;1.70;;
18206;SDS011;9229;52.354;20.886;2023-06-04T06:17:39;3.75;;;1.67;;
18206;SDS011;9229;52.354;20.886;2023-06-04T06:22:41;2.92;;;1.45;;
18206;SDS011;9229;52.354;20.886;2023-06-04T06:27:47;6.05;;;1.65;;
18206;SDS011;9229;52.354;20.886;2023-06-04T06:32:53;1.35;;;1.30;;
18206;SDS011;9229;52.354;20.886;2023-06-04T06:37:55;5.65;;;1.48;;
18206;SDS011;9229;52.354;20.886;2023-06-04T06:42:57;3.50;;;1.70;;
18206;SDS011;9229;52.354;20.886;2023-06-04T06:48:02;2.17;;;1.30;;
18206;SDS011;9229;52.354;20.886;2023-06-04T06:53:05;1.75;;;1.50;;
18206;SDS011;9229;52.354;20.886;2023-06-04T06:58:07;1.48;;;1.38;;
18206;SDS011;9229;52.354;20.886;2023-06-04T07:03:11;1.67;;;1.58;;
18206;SDS011;9229;52.354;20.886;2023-06-04T07:08:13;1.90;;;1.52;;
18206;SDS011;9229;52.354;20.886;2023-06-04T07:13:15;1.60;;;1.50;;
18206;SDS011;9229;52.354;20.886;2023-06-04T07:18:21;1.38;;;1.17;;
18206;SDS011;9229;52.354;20.886;2023-06-04T07:23:23;3.22;;;1.45;;
18206;SDS011;9229;52.354;20.886;2023-06-04T07:28:26;2.83;;;1.40;;
18206;SDS011;9229;52.354;20.886;2023-06-04T07:33:29;5.15;;;1.20;;
18206;SDS011;9229;52.354;20.886;2023-06-04T07:38:33;2.75;;;0.95;;
18206;SDS011;9229;52.354;20.886;2023-06-04T07:43:36;7.03;;;1.40;;
18206;SDS011;9229;52.354;20.886;2023-06-04T07:48:40;0.85;;;0.85;;
18206;SDS011;9229;52.354;20.886;2023-06-04T07:53:45;1.17;;;1.02;;
18206;SDS011;9229;52.354;20.886;2023-06-04T07:58:47;2.95;;;1.00;;
18206;SDS011;9229;52.354;20.886;2023-06-04T08:03:51;2.45;;;1.00;;
18206;SDS011;9229;52.354;20.886;2023-06-04T08:08:53;0.93;;;0.85;;
18206;SDS011;9229;52.354;20.886;2023-06-04T08:13:56;2.22;;;1.00;;
18206;SDS011;9229;52.354;20.886;2023-06-04T08:19:00;4.07;;;1.02;;
18206;SDS011;9229;52.354;20.886;2023-06-04T08:24:02;3.88;;;1.52;;
18206;SDS011;9229;52.354;20.886;2023-06-04T08:29:06;2.67;;;1.20;;
18206;SDS011;9229;52.354;20.886;2023-06-04T08:34:11;1.23;;;0.90;;
18206;SDS011;9229;52.354;20.886;2023-06-04T08:39:13;1.40;;;1.35;;
18206;SDS011;9229;52.354;20.886;2023-06-04T08:44:15;3.90;;;1.05;;
18206;SDS011;9229;52.354;20.886;2023-06-04T08:49:21;6.35;;;1.27;;
18206;SDS011;9229;52.354;20.886;2023-06-04T08:54:25;0.90;;;0.90;;
18206;SDS011;9229;52.354;20.886;2023-06-04T08:59:31;3.50;;;1.10;;
18206;SDS011;9229;52.354;20.886;2023-06-04T09:04:35;2.90;;;1.30;;
18206;SDS011;9229;52.354;20.886;2023-06-04T09:09:38;0.80;;;0.80;;
18206;SDS011;9229;52.354;20.886;2023-06-04T09:14:40;1.23;;;0.98;;
18206;SDS011;9229;52.354;20.886;2023-06-04T09:19:44;0.90;;;0.90;;
18206;SDS011;9229;52.354;20.886;2023-06-04T09:24:46;5.50;;;1.10;;
18206;SDS011;9229;52.354;20.886;2023-06-04T09:29:50;2.65;;;0.80;;
18206;SDS011;9229;52.354;20.886;2023-06-04T09:34:54;4.38;;;1.00;;
18206;SDS011;9229;52.354;20.886;2023-06-04T09:39:57;2.63;;;1.40;;
18206;SDS011;9229;52.354;20.886;2023-06-04T09:45:00;5.00;;;0.93;;
18206;SDS011;9229;52.354;20.886;2023-06-04T09:50:05;1.20;;;1.10;;
18206;SDS011;9229;52.354;20.886;2023-06-04T09:55:17;1.60;;;1.00;;
18206;SDS011;9229;52.354;20.886;2023-06-04T10:00:22;3.17;;;1.20;;
18206;SDS011;9229;52.354;20.886;2023-06-04T10:05:26;0.70;;;0.70;;
18206;SDS011;9229;52.354;20.886;2023-06-04T10:10:30;1.20;;;1.05;;
18206;SDS011;9229;52.354;20.886;2023-06-04T10:15:40;0.93;;;0.90;;
18206;SDS011;9229;52.354;20.886;2023-06-04T10:20:44;4.45;;;1.23;;
18206;SDS011;9229;52.354;20.886;2023-06-04T10:25:46;1.10;;;1.10;;
18206;SDS011;9229;52.354;20.886;2023-06-04T10:30:50;1.05;;;1.05;;
18206;SDS011;9229;52.354;20.886;2023-06-04T10:35:54;0.85;;;0.85;;
18206;SDS011;9229;52.354;20.886;2023-06-04T10:40:56;2.38;;;0.93;;
18206;SDS011;9229;52.354;20.886;2023-06-04T10:46:10;1.13;;;1.10;;
18206;SDS011;9229;52.354;20.886;2023-06-04T10:51:14;2.28;;;1.30;;
18206;SDS011;9229;52.354;20.886;2023-06-04T10:56:24;0.80;;;0.80;;
18206;SDS011;9229;52.354;20.886;2023-06-04T11:01:29;7.15;;;1.40;;
18206;SDS011;9229;52.354;20.886;2023-06-04T11:06:33;3.05;;;1.17;;
18206;SDS011;9229;52.354;20.886;2023-06-04T11:11:36;2.95;;;0.88;;
18206;SDS011;9229;52.354;20.886;2023-06-04T11:16:38;4.30;;;1.13;;
18206;SDS011;9229;52.354;20.886;2023-06-04T11:21:41;1.00;;;1.00;;
18206;SDS011;9229;52.354;20.886;2023-06-04T11:26:44;2.15;;;0.90;;
18206;SDS011;9229;52.354;20.886;2023-06-04T11:31:48;0.90;;;0.90;;
18206;SDS011;9229;52.354;20.886;2023-06-04T11:36:53;0.93;;;0.93;;
18206;SDS011;9229;52.354;20.886;2023-06-04T11:41:55;1.30;;;0.85;;
18206;SDS011;9229;52.354;20.886;2023-06-04T11:47:04;2.20;;;1.30;;
18206;SDS011;9229;52.354;20.886;2023-06-04T11:52:12;1.55;;;1.00;;
18206;SDS011;9229;52.354;20.886;2023-06-04T11:57:15;6.22;;;0.98;;
18206;SDS011;9229;52.354;20.886;2023-06-04T12:02:17;1.23;;;1.02;;
18206;SDS011;9229;52.354;20.886;2023-06-04T12:07:24;2.60;;;1.20;;
18206;SDS011;9229;52.354;20.886;2023-06-04T12:12:26;7.03;;;1.20;;
18206;SDS011;9229;52.354;20.886;2023-06-04T12:17:28;1.00;;;1.00;;
18206;SDS011;9229;52.354;20.886;2023-06-04T12:22:32;2.15;;;0.98;;
18206;SDS011;9229;52.354;20.886;2023-06-04T12:27:46;0.90;;;0.90;;
18206;SDS011;9229;52.354;20.886;2023-06-04T12:32:49;1.77;;;0.95;;
18206;SDS011;9229;52.354;20.886;2023-06-04T12:37:55;1.20;;;1.20;;
18206;SDS011;9229;52.354;20.886;2023-06-04T12:42:57;1.27;;;1.05;;
18206;SDS011;9229;52.354;20.886;2023-06-04T12:48:00;0.90;;;0.90;;
18206;SDS011;9229;52.354;20.886;2023-06-04T12:53:04;2.25;;;1.00;;
18206;SDS011;9229;52.354;20.886;2023-06-04T12:58:07;3.00;;;0.90;;
18206;SDS011;9229;52.354;20.886;2023-06-04T13:03:09;0.90;;;0.90;;
18206;SDS011;9229;52.354;20.886;2023-06-04T13:08:13;1.20;;;0.93;;
18206;SDS011;9229;52.354;20.886;2023-06-04T13:13:15;1.15;;;1.10;;
18206;SDS011;9229;52.354;20.886;2023-06-04T13:18:17;1.27;;;0.98;;
18206;SDS011;9229;52.354;20.886;2023-06-04T13:23:21;1.23;;;0.80;;
18206;SDS011;9229;52.354;20.886;2023-06-04T13:28:23;1.83;;;1.00;;
18206;SDS011;9229;52.354;20.886;2023-06-04T13:33:26;5.20;;;0.98;;
18206;SDS011;9229;52.354;20.886;2023-06-04T13:38:30;1.20;;;1.20;;
18206;SDS011;9229;52.354;20.886;2023-06-04T13:43:32;3.03;;;1.10;;
18206;SDS011;9229;52.354;20.886;2023-06-04T13:48:34;4.68;;;1.20;;
18206;SDS011;9229;52.354;20.886;2023-06-04T13:53:38;1.02;;;0.95;;
18206;SDS011;9229;52.354;20.886;2023-06-04T13:58:40;1.08;;;0.90;;
18206;SDS011;9229;52.354;20.886;2023-06-04T14:03:43;1.13;;;1.13;;
18206;SDS011;9229;52.354;20.886;2023-06-04T14:08:49;1.08;;;1.08;;
18206;SDS011;9229;52.354;20.886;2023-06-04T14:13:51;2.03;;;1.10;;
18206;SDS011;9229;52.354;20.886;2023-06-04T14:18:53;3.10;;;1.35;;
18206;SDS011;9229;52.354;20.886;2023-06-04T14:23:57;15.27;;;1.80;;
18206;SDS011;9229;52.354;20.886;2023-06-04T14:29:02;2.60;;;1.20;;
18206;SDS011;9229;52.354;20.886;2023-06-04T14:34:05;4.72;;;1.23;;
18206;SDS011;9229;52.354;20.886;2023-06-04T14:39:13;1.27;;;1.27;;
18206;SDS011;9229;52.354;20.886;2023-06-04T14:44:15;3.90;;;1.30;;
18206;SDS011;9229;52.354;20.886;2023-06-04T14:49:17;4.13;;;1.48;;
18206;SDS011;9229;52.354;20.886;2023-06-04T14:54:22;4.20;;;1.27;;
18206;SDS011;9229;52.354;20.886;2023-06-04T14:59:24;2.22;;;1.20;;
18206;SDS011;9229;52.354;20.886;2023-06-04T15:04:27;9.38;;;1.40;;
18206;SDS011;9229;52.354;20.886;2023-06-04T15:09:31;2.35;;;1.33;;
18206;SDS011;9229;52.354;20.886;2023-06-04T15:14:33;1.60;;;1.00;;
18206;SDS011;9229;52.354;20.886;2023-06-04T15:19:37;1.38;;;1.23;;
18206;SDS011;9229;52.354;20.886;2023-06-04T15:24:40;1.30;;;1.00;;
18206;SDS011;9229;52.354;20.886;2023-06-04T15:29:45;1.23;;;1.08;;
18206;SDS011;9229;52.354;20.886;2023-06-04T15:34:47;2.63;;;1.05;;
18206;SDS011;9229;52.354;20.886;2023-06-04T15:39:50;3.10;;;1.00;;
18206;SDS011;9229;52.354;20.886;2023-06-04T15:44:52;11.50;;;1.40;;
18206;SDS011;9229;52.354;20.886;2023-06-04T15:49:54;2.63;;;1.23;;
18206;SDS011;9229;52.354;20.886;2023-06-04T15:54:58;1.73;;;1.10;;
18206;SDS011;9229;52.354;20.886;2023-06-04T16:00:00;1.20;;;1.10;;
18206;SDS011;9229;52.354;20.886;2023-06-04T16:05:04;5.85;;;1.10;;
18206;SDS011;9229;52.354;20.886;2023-06-04T16:10:08;1.85;;;1.30;;
18206;SDS011;9229;52.354;20.886;2023-06-04T16:15:11;3.53;;;1.40;;
18206;SDS011;9229;52.354;20.886;2023-06-04T16:20:13;3.58;;;1.42;;
18206;SDS011;9229;52.354;20.886;2023-06-04T16:25:16;1.92;;;1.13;;
18206;SDS011;9229;52.354;20.886;2023-06-04T16:30:19;1.25;;;1.23;;
18206;SDS011;9229;52.354;20.886;2023-06-04T16:35:21;7.63;;;1.30;;
18206;SDS011;9229;52.354;20.886;2023-06-04T16:40:25;3.80;;;1.17;;
18206;SDS011;9229;52.354;20.886;2023-06-04T16:45:27;1.70;;;1.20;;
18206;SDS011;9229;52.354;20.886;2023-06-04T16:50:31;7.00;;;1.38;;
18206;SDS011;9229;52.354;20.886;2023-06-04T16:55:35;1.20;;;1.10;;
18206;SDS011;9229;52.354;20.886;2023-06-04T17:00:46;4.30;;;1.15;;
18206;SDS011;9229;52.354;20.886;2023-06-04T17:05:49;1.23;;;1.23;;
18206;SDS011;9229;52.354;20.886;2023-06-04T17:10:52;1.48;;;1.17;;
18206;SDS011;9229;52.354;20.886;2023-06-04T17:15:55;9.05;;;1.95;;
18206;SDS011;9229;52.354;20.886;2023-06-04T17:20:57;36.75;;;4.32;;
18206;SDS011;9229;52.354;20.886;2023-06-04T17:26:00;1.88;;;1.02;;
18206;SDS011;9229;52.354;20.886;2023-06-04T17:31:02;2.63;;;1.30;;
18206;SDS011;9229;52.354;20.886;2023-06-04T17:36:05;6.25;;;2.10;;
18206;SDS011;9229;52.354;20.886;2023-06-04T17:41:08;3.50;;;1.35;;
18206;SDS011;9229;52.354;20.886;2023-06-04T17:46:10;5.28;;;1.25;;
18206;SDS011;9229;52.354;20.886;2023-06-04T17:51:12;1.40;;;1.30;;
18206;SDS011;9229;52.354;20.886;2023-06-04T17:56:17;3.53;;;1.20;;
18206;SDS011;9229;52.354;20.886;2023-06-04T18:01:20;3.33;;;1.20;;
18206;SDS011;9229;52.354;20.886;2023-06-04T18:06:22;1.10;;;1.10;;
18206;SDS011;9229;52.354;20.886;2023-06-04T18:11:26;63.15;;;3.45;;
18206;SDS011;9229;52.354;20.886;2023-06-04T18:16:28;24.35;;;2.72;;
18206;SDS011;9229;52.354;20.886;2023-06-04T18:21:30;4.47;;;1.70;;
18206;SDS011;9229;52.354;20.886;2023-06-04T18:26:37;55.78;;;4.68;;
18206;SDS011;9229;52.354;20.886;2023-06-04T18:31:39;28.95;;;2.63;;
18206;SDS011;9229;52.354;20.886;2023-06-04T18:36:41;27.05;;;3.58;;
18206;SDS011;9229;52.354;20.886;2023-06-04T18:41:46;99.22;;;6.45;;
18206;SDS011;9229;52.354;20.886;2023-06-04T18:46:48;24.02;;;2.92;;
18206;SDS011;9229;52.354;20.886;2023-06-04T18:51:50;19.55;;;2.97;;
18206;SDS011;9229;52.354;20.886;2023-06-04T18:56:54;15.57;;;2.45;;
18206;SDS011;9229;52.354;20.886;2023-06-04T19:01:56;14.40;;;2.17;;
18206;SDS011;9229;52.354;20.886;2023-06-04T19:07:01;11.98;;;2.25;;
18206;SDS011;9229;52.354;20.886;2023-06-04T19:12:05;12.05;;;2.38;;
18206;SDS011;9229;52.354;20.886;2023-06-04T19:17:07;17.77;;;3.33;;
18206;SDS011;9229;52.354;20.886;2023-06-04T19:22:09;53.20;;;4.35;;
18206;SDS011;9229;52.354;20.886;2023-06-04T19:27:12;41.80;;;3.80;;
18206;SDS011;9229;52.354;20.886;2023-06-04T19:32:16;13.63;;;2.50;;
18206;SDS011;9229;52.354;20.886;2023-06-04T19:37:18;7.63;;;2.67;;
18206;SDS011;9229;52.354;20.886;2023-06-04T19:42:22;9.80;;;3.13;;
18206;SDS011;9229;52.354;20.886;2023-06-04T19:47:25;29.92;;;4.72;;
18206;SDS011;9229;52.354;20.886;2023-06-04T19:52:28;18.08;;;3.60;;
18206;SDS011;9229;52.354;20.886;2023-06-04T19:57:33;25.48;;;4.05;;
18206;SDS011;9229;52.354;20.886;2023-06-04T20:02:35;22.10;;;3.45;;
18206;SDS011;9229;52.354;20.886;2023-06-04T20:07:37;22.58;;;3.05;;
18206;SDS011;9229;52.354;20.886;2023-06-04T20:12:41;26.83;;;3.80;;
18206;SDS011;9229;52.354;20.886;2023-06-04T20:17:43;17.23;;;4.13;;
18206;SDS011;9229;52.354;20.886;2023-06-04T20:22:45;35.92;;;4.30;;
18206;SDS011;9229;52.354;20.886;2023-06-04T20:27:48;17.48;;;3.97;;
18206;SDS011;9229;52.354;20.886;2023-06-04T20:32:50;12.45;;;3.78;;
18206;SDS011;9229;52.354;20.886;2023-06-04T20:37:54;11.20;;;3.45;;
18206;SDS011;9229;52.354;20.886;2023-06-04T20:42:57;18.33;;;3.70;;
18206;SDS011;9229;52.354;20.886;2023-06-04T20:48:00;8.52;;;3.03;;
18206;SDS011;9229;52.354;20.886;2023-06-04T20:53:03;5.00;;;3.47;;
18206;SDS011;9229;52.354;20.886;2023-06-04T20:58:07;18.33;;;4.05;;
18206;SDS011;9229;52.354;20.886;2023-06-04T21:03:09;6.47;;;3.45;;
18206;SDS011;9229;52.354;20.886;2023-06-04T21:08:16;5.78;;;4.45;;
18206;SDS011;9229;52.354;20.886;2023-06-04T21:13:20;10.60;;;4.20;;
18206;SDS011;9229;52.354;20.886;2023-06-04T21:18:22;5.70;;;3.63;;
18206;SDS011;9229;52.354;20.886;2023-06-04T21:23:25;19.63;;;4.40;;
18206;SDS011;9229;52.354;20.886;2023-06-04T21:28:28;13.85;;;4.45;;
18206;SDS011;9229;52.354;20.886;2023-06-04T21:33:31;8.02;;;3.65;;
18206;SDS011;9229;52.354;20.886;2023-06-04T21:38:33;10.80;;;4.22;;
18206;SDS011;9229;52.354;20.886;2023-06-04T21:43:36;13.63;;;3.42;;
18206;SDS011;9229;52.354;20.886;2023-06-04T21:48:39;5.18;;;3.60;;
18206;SDS011;9229;52.354;20.886;2023-06-04T21:53:44;9.10;;;4.03;;
18206;SDS011;9229;52.354;20.886;2023-06-04T21:58:47;8.70;;;3.97;;
18206;SDS011;9229;52.354;20.886;2023-06-04T22:03:49;6.28;;;4.10;;
18206;SDS011;9229;52.354;20.886;2023-06-04T22:08:51;14.95;;;3.97;;
18206;SDS011;9229;52.354;20.886;2023-06-04T22:13:55;9.13;;;4.43;;
18206;SDS011;9229;52.354;20.886;2023-06-04T22:18:57;18.77;;;5.00;;
18206;SDS011;9229;52.354;20.886;2023-06-04T22:24:00;12.73;;;4.45;;
18206;SDS011;9229;52.354;20.886;2023-06-04T22:29:04;8.63;;;3.90;;
18206;SDS011;9229;52.354;20.886;2023-06-04T22:34:07;5.60;;;4.45;;
18206;SDS011;9229;52.354;20.886;2023-06-04T22:39:09;9.80;;;4.57;;
18206;SDS011;9229;52.354;20.886;2023-06-04T22:44:12;11.75;;;4.60;;
18206;SDS011;9229;52.354;20.886;2023-06-04T22:49:14;14.15;;;4.50;;
18206;SDS011;9229;52.354;20.886;2023-06-04T22:54:19;12.43;;;4.53;;
18206;SDS011;9229;52.354;20.886;2023-06-04T22:59:23;16.67;;;4.28;;
18206;SDS011;9229;52.354;20.886;2023-06-04T23:04:26;5.22;;;3.65;;
18206;SDS011;9229;52.354;20.886;2023-06-04T23:09:30;17.23;;;4.05;;
18206;SDS011;9229;52.354;20.886;2023-06-04T23:14:34;11.38;;;4.78;;
18206;SDS011;9229;52.354;20.886;2023-06-04T23:19:36;16.08;;;4.93;;
18206;SDS011;9229;52.354;20.886;2023-06-04T23:24:38;7.35;;;5.10;;
18206;SDS011;9229;52.354;20.886;2023-06-04T23:29:41;9.98;;;4.60;;
18206;SDS011;9229;52.354;20.886;2023-06-04T23:34:45;8.32;;;4.68;;
18206;SDS011;9229;52.354;20.886;2023-06-04T23:39:47;11.82;;;5.05;;
18206;SDS011;9229;52.354;20.886;2023-06-04T23:44:52;5.68;;;5.03;;
18206;SDS011;9229;52.354;20.886;2023-06-04T23:49:54;7.25;;;4.28;;
18206;SDS011;9229;52.354;20.886;2023-06-04T23:54:57;5.93;;;4.63;;
